Ajax, Kentucky
Current Conditions -  °F | °C
As of 12:53 AM on Sunday 26 Oct 2014 (Local Time) from KJKL Reporting Station
Clear Clear  
Wind Chill: 59°   Ceiling: Unl
Heat Index: 59°   Visibility: 9mi
Dew Point: 55°   Wind: 3mph
Humidity: 87%   Direction: 230°SW
Pressure: 29.96"   Gusts: NA
Location:  37.3318°N, 83.1697°W
Report Text: KJKL 260453Z AUTO 23003KT 9SM CLR 15/13 A2996 RMK AO2 SLP140 T01500128 402060050
Loading
Personal Weather Stations






























Interactive Weather Map
Tropical Storm Tracking
New forecast layout! Learn more

10-Day Weather Forecast

Advertisements
Track Severe Weather on mobile